Time;durP1;ratioP1;P1;durP2;ratioP2;P2;SDS_P1;SDS_P2;PMS_P1;PMS_P2;Temp;Humidity;BMP_temperature;BMP_pressure;BME280_temperature;BME280_humidity;BME280_pressure;Samples;Min_cycle;Max_cycle;Signal;HPM_P1;HPM_P2
2023/07/13 00:02:01;;;;;;;3.47;0.98;;;;;;;13.87;48.74;101172.03;4993302;28;20045;-69
2023/07/13 00:04:26;;;;;;;1.42;0.93;;;;;;;13.73;48.96;101163.97;4986384;28;20136;-68
2023/07/13 00:06:52;;;;;;;2.53;0.63;;;;;;;13.82;48.59;101158.28;4988407;28;20036;-68
2023/07/13 00:09:19;;;;;;;3.40;0.75;;;;;;;13.75;49.13;101159.50;4988685;28;20528;-68
2023/07/13 00:11:47;;;;;;;3.13;0.73;;;;;;;13.77;48.78;101168.16;4972753;28;20053;-69
2023/07/13 00:14:13;;;;;;;3.22;1.38;;;;;;;13.63;49.39;101173.22;4989277;28;20029;-69
2023/07/13 00:16:43;;;;;;;1.60;0.70;;;;;;;13.63;49.14;101170.59;4984675;28;20068;-69
2023/07/13 00:19:10;;;;;;;2.05;1.00;;;;;;;13.52;49.32;101174.56;4990848;28;20061;-69
2023/07/13 00:21:35;;;;;;;1.80;0.60;;;;;;;13.67;49.03;101172.16;4984112;28;20034;-67
2023/07/13 00:24:01;;;;;;;1.80;0.82;;;;;;;13.69;48.88;101167.69;4991900;28;20034;-68
2023/07/13 00:26:27;;;;;;;3.47;1.10;;;;;;;13.59;49.11;101164.66;4986353;28;20052;-67
2023/07/13 00:28:52;;;;;;;3.13;1.00;;;;;;;13.68;48.76;101152.84;4987579;28;20817;-67
2023/07/13 00:31:18;;;;;;;2.97;0.88;;;;;;;13.70;48.81;101154.47;4985590;28;20041;-67
2023/07/13 00:33:47;;;;;;;4.53;1.48;;;;;;;13.71;49.13;101155.31;4988167;28;20518;-68
2023/07/13 00:36:14;;;;;;;6.43;1.08;;;;;;;13.63;48.74;101162.72;4990323;28;20463;-68
2023/07/13 00:38:40;;;;;;;1.85;1.23;;;;;;;13.69;49.09;101154.53;4962725;28;20153;-67
2023/07/13 00:41:07;;;;;;;1.85;1.05;;;;;;;13.76;48.73;101158.56;4972084;28;20477;-68
2023/07/13 00:43:32;;;;;;;8.52;1.63;;;;;;;13.77;48.69;101155.03;4966905;28;20042;-68
2023/07/13 00:46:00;;;;;;;3.70;0.80;;;;;;;13.81;48.67;101155.72;4989884;28;20028;-68
2023/07/13 00:48:31;;;;;;;3.65;1.30;;;;;;;13.66;49.04;101152.09;4987238;28;20261;-68
2023/07/13 00:50:59;;;;;;;4.65;1.25;;;;;;;13.62;49.21;101158.41;4988684;28;20133;-68
2023/07/13 00:53:27;;;;;;;4.20;1.00;;;;;;;13.66;49.05;101150.28;4967977;28;20266;-68
2023/07/13 00:55:54;;;;;;;6.53;1.15;;;;;;;13.65;49.07;101153.88;4987312;28;20632;-67
2023/07/13 00:58:21;;;;;;;2.60;0.90;;;;;;;13.64;49.15;101161.81;4970140;28;20315;-67
2023/07/13 01:00:48;;;;;;;10.15;0.93;;;;;;;13.52;49.28;101145.69;4986055;28;20034;-68
2023/07/13 01:03:15;;;;;;;3.30;0.77;;;;;;;13.53;49.21;101150.00;4986546;28;20405;-68
2023/07/13 01:05:41;;;;;;;6.05;1.27;;;;;;;13.54;49.47;101156.13;4985001;28;20057;-67
2023/07/13 01:08:06;;;;;;;5.22;1.10;;;;;;;13.41;49.95;101155.00;4989072;28;20030;-67
2023/07/13 01:10:39;;;;;;;1.80;1.15;;;;;;;13.48;49.57;101157.25;4983284;28;20045;-69
2023/07/13 01:13:07;;;;;;;6.95;1.02;;;;;;;13.42;49.54;101164.56;4971657;28;20060;-68
2023/07/13 01:15:54;;;;;;;4.00;1.02;;;;;;;13.30;49.87;101169.47;4978666;28;20054;-68
2023/07/13 01:18:26;;;;;;;1.95;0.68;;;;;;;12.98;50.87;101167.47;4984814;28;20061;-68
2023/07/13 01:20:57;;;;;;;4.35;1.08;;;;;;;13.36;49.90;101165.72;4985489;28;20042;-68
2023/07/13 01:23:24;;;;;;;3.35;1.08;;;;;;;13.30;50.21;101166.84;4985864;28;20037;-68
2023/07/13 01:25:51;;;;;;;5.03;1.02;;;;;;;13.36;49.82;101165.72;4967540;28;20049;-68
2023/07/13 01:28:17;;;;;;;4.70;0.65;;;;;;;13.40;50.04;101163.78;4985363;28;20026;-68
2023/07/13 01:30:45;;;;;;;3.92;1.08;;;;;;;13.28;49.88;101166.06;4968772;28;20096;-68
2023/07/13 01:33:12;;;;;;;5.68;1.70;;;;;;;13.29;50.06;101166.91;4987088;28;20511;-68
2023/07/13 01:35:38;;;;;;;4.10;0.70;;;;;;;13.32;50.07;101162.38;4982706;28;20037;-68
2023/07/13 01:38:04;;;;;;;4.13;0.60;;;;;;;13.36;49.78;101157.84;4990892;28;20033;-68
2023/07/13 01:40:30;;;;;;;1.95;0.50;;;;;;;13.32;49.52;101165.00;4978873;28;20145;-69
2023/07/13 01:42:57;;;;;;;8.55;1.45;;;;;;;13.20;49.99;101159.47;4989508;28;20302;-68
2023/07/13 01:45:23;;;;;;;8.90;1.35;;;;;;;13.24;50.43;101163.66;4982393;28;20156;-68
2023/07/13 01:47:48;;;;;;;2.72;0.70;;;;;;;13.15;50.37;101170.19;4984376;28;20634;-68
2023/07/13 01:50:14;;;;;;;2.78;1.00;;;;;;;13.17;50.46;101170.97;4989507;28;20249;-67
2023/07/13 01:52:40;;;;;;;4.30;1.02;;;;;;;13.26;50.46;101172.31;4987746;28;20046;-68
2023/07/13 01:55:08;;;;;;;4.75;1.20;;;;;;;13.29;50.40;101166.91;4973932;28;20037;-68
2023/07/13 01:57:34;;;;;;;5.25;1.27;;;;;;;13.46;49.43;101174.84;4983894;28;20124;-70
2023/07/13 02:00:01;;;;;;;2.53;0.70;;;;;;;13.58;49.66;101172.59;4989551;28;20125;-69
2023/07/13 02:02:26;;;;;;;2.70;2.22;;;;;;;13.20;50.62;101176.06;4989265;28;20157;-70
2023/07/13 02:04:51;;;;;;;5.55;1.05;;;;;;;13.25;49.99;101160.97;4987159;28;20050;-69
2023/07/13 02:07:17;;;;;;;3.20;0.82;;;;;;;13.42;49.92;101161.94;4985401;28;20036;-69
2023/07/13 02:09:43;;;;;;;8.73;1.20;;;;;;;13.42;49.74;101162.78;4981633;28;20165;-69
2023/07/13 02:12:09;;;;;;;7.95;1.52;;;;;;;13.56;49.57;101159.50;5006408;28;20046;-70
2023/07/13 02:14:34;;;;;;;2.53;1.13;;;;;;;13.61;49.41;101159.34;4974200;28;20049;-71
2023/07/13 02:17:00;;;;;;;4.75;0.90;;;;;;;13.67;49.40;101172.16;4990150;28;20044;-73
2023/07/13 02:19:25;;;;;;;4.50;1.20;;;;;;;13.50;49.37;101173.78;4988220;28;20427;-71
2023/07/13 02:21:51;;;;;;;2.75;1.52;;;;;;;13.59;49.61;101174.31;4978886;28;21207;-68
2023/07/13 02:24:19;;;;;;;5.90;1.38;;;;;;;13.50;50.06;101179.03;4987664;28;20075;-69
2023/07/13 02:26:44;;;;;;;6.53;0.93;;;;;;;13.44;50.54;101175.84;4986409;28;20049;-70
2023/07/13 02:29:11;;;;;;;4.00;1.83;;;;;;;13.33;50.71;101181.59;4987727;28;20050;-70
2023/07/13 02:31:36;;;;;;;6.47;1.00;;;;;;;13.11;51.43;101174.72;4960890;28;20034;-69
2023/07/13 02:34:02;;;;;;;3.58;1.10;;;;;;;12.99;51.87;101172.66;4989095;28;20088;-69
2023/07/13 02:36:28;;;;;;;8.57;1.63;;;;;;;13.14;51.40;101171.13;4984892;28;20033;-69
2023/07/13 02:38:53;;;;;;;11.05;1.60;;;;;;;13.43;51.16;101161.88;4984355;28;20282;-69
2023/07/13 02:41:19;;;;;;;5.10;1.67;;;;;;;13.29;51.82;101164.28;4986454;28;20053;-69
2023/07/13 02:43:45;;;;;;;6.05;2.08;;;;;;;12.54;53.89;101172.94;4987084;28;20073;-69
2023/07/13 02:46:10;;;;;;;3.70;1.00;;;;;;;13.00;52.97;101176.13;4987639;28;20026;-69
2023/07/13 02:48:37;;;;;;;10.50;2.10;;;;;;;13.04;52.36;101172.47;4979940;28;20126;-69
2023/07/13 02:51:03;;;;;;;7.38;1.60;;;;;;;13.26;52.07;101172.31;4982956;28;20630;-69
2023/07/13 02:53:28;;;;;;;16.48;2.10;;;;;;;13.39;51.99;101168.19;4969450;28;20030;-69
2023/07/13 02:55:54;;;;;;;5.45;0.98;;;;;;;12.97;53.27;101168.41;4985478;28;20247;-69
2023/07/13 02:58:19;;;;;;;4.38;1.02;;;;;;;13.31;52.36;101181.66;4985704;28;20068;-69
2023/07/13 03:00:47;;;;;;;9.82;2.05;;;;;;;13.48;51.98;101172.16;4987318;28;20538;-68
2023/07/13 03:03:14;;;;;;;4.75;2.05;;;;;;;13.56;51.91;101177.03;4987107;28;20026;-68
2023/07/13 03:05:42;;;;;;;5.28;2.08;;;;;;;13.44;52.11;101179.31;4981672;28;20110;-69
2023/07/13 03:08:09;;;;;;;7.25;1.50;;;;;;;13.55;52.30;101177.97;4990548;28;20029;-70
2023/07/13 03:10:35;;;;;;;5.43;1.15;;;;;;;13.50;52.62;101180.81;4978164;28;20103;-69
2023/07/13 03:13:01;;;;;;;8.70;1.17;;;;;;;13.14;53.75;101184.25;4988951;28;20034;-68
2023/07/13 03:15:27;;;;;;;7.15;1.45;;;;;;;12.95;53.92;101171.09;4997739;28;20308;-69
2023/07/13 03:17:57;;;;;;;9.30;1.60;;;;;;;13.35;52.86;101178.91;4985257;28;20585;-69
2023/07/13 03:20:23;;;;;;;10.05;1.20;;;;;;;13.50;52.76;101175.56;4968762;28;20145;-69
2023/07/13 03:22:48;;;;;;;7.80;1.48;;;;;;;13.13;53.84;101176.44;4986875;28;20060;-70
2023/07/13 03:25:15;;;;;;;6.00;1.40;;;;;;;13.53;52.75;101175.41;4985672;28;20046;-70
2023/07/13 03:27:41;;;;;;;6.13;1.40;;;;;;;13.40;53.34;101174.28;4984523;28;20057;-70
2023/07/13 03:30:08;;;;;;;4.95;1.35;;;;;;;13.45;53.13;101175.78;4989350;28;20160;-70
2023/07/13 03:32:34;;;;;;;9.98;1.40;;;;;;;13.43;53.13;101175.00;4999215;28;20669;-70
2023/07/13 03:35:01;;;;;;;7.47;2.22;;;;;;;13.16;54.34;101187.66;4981507;28;20467;-69
2023/07/13 03:37:28;;;;;;;4.60;1.30;;;;;;;13.47;53.50;101176.56;4984265;28;20742;-71
2023/07/13 03:39:54;;;;;;;4.43;1.05;;;;;;;13.60;52.79;101183.88;4981765;28;20061;-69
2023/07/13 03:42:19;;;;;;;9.00;1.83;;;;;;;13.66;53.22;101183.59;5000779;28;20192;-70
2023/07/13 03:44:52;;;;;;;5.65;1.27;;;;;;;13.58;53.23;101178.69;4972757;28;20559;-71
2023/07/13 03:47:17;;;;;;;;;;;;;;;13.58;52.91;101183.94;4974405;28;20529;-72
2023/07/13 03:49:43;;;;;;;5.13;1.10;;;;;;;13.79;52.22;101186.50;4986623;28;19925;-72
2023/07/13 03:52:09;;;;;;;6.15;0.57;;;;;;;13.70;52.65;101186.00;4989984;28;20464;-69
2023/07/13 03:54:34;;;;;;;7.97;1.70;;;;;;;13.75;52.71;101185.78;4988399;28;20042;-70
2023/07/13 03:57:01;;;;;;;7.82;1.02;;;;;;;13.87;52.70;101184.31;4987419;28;20029;-74
2023/07/13 03:59:29;;;;;;;9.80;1.15;;;;;;;13.47;53.70;101184.44;4974563;28;20280;-70
2023/07/13 04:01:55;;;;;;;8.30;1.08;;;;;;;13.71;53.18;101186.84;4985657;28;20092;-74
2023/07/13 04:04:20;;;;;;;8.88;1.23;;;;;;;13.43;53.92;101190.78;4973583;28;20049;-74
2023/07/13 04:06:46;;;;;;;7.38;1.00;;;;;;;13.42;53.97;101186.41;4970220;28;20068;-74
2023/07/13 04:09:12;;;;;;;7.53;1.02;;;;;;;13.70;53.36;101187.78;4969600;28;20076;-69
2023/07/13 04:11:37;;;;;;;9.50;1.70;;;;;;;13.55;53.60;101191.94;4990442;28;20038;-70
2023/07/13 04:14:04;;;;;;;5.30;0.68;;;;;;;13.66;53.45;101197.56;4985309;28;20070;-67
2023/07/13 04:16:30;;;;;;;4.75;0.80;;;;;;;13.64;53.57;101198.56;4989739;28;20515;-67
2023/07/13 04:18:59;;;;;;;6.97;1.30;;;;;;;13.90;52.62;101190.28;4983477;28;20045;-66
2023/07/13 04:21:29;;;;;;;8.13;1.27;;;;;;;12.95;55.48;101194.72;4990648;28;20393;-66
2023/07/13 04:23:56;;;;;;;7.63;0.88;;;;;;;13.55;53.81;101204.25;4987208;28;20050;-68
2023/07/13 04:26:22;;;;;;;7.65;1.17;;;;;;;13.81;53.44;101206.50;4986313;28;20481;-67
2023/07/13 04:28:48;;;;;;;4.75;0.88;;;;;;;13.02;55.23;101203.16;4986044;28;20104;-67
2023/07/13 04:31:14;;;;;;;9.63;1.10;;;;;;;13.51;54.23;101209.63;4989544;28;20034;-67
2023/07/13 04:33:40;;;;;;;4.57;0.77;;;;;;;13.42;54.55;101215.31;4983436;28;20045;-70
2023/07/13 04:36:06;;;;;;;8.43;1.83;;;;;;;13.63;53.91;101210.88;4988295;28;20412;-67
2023/07/13 04:38:33;;;;;;;7.05;1.42;;;;;;;13.36;54.88;101225.25;4987525;28;20049;-69
2023/07/13 04:41:01;;;;;;;11.60;1.40;;;;;;;12.83;56.18;101221.50;4986031;28;20514;-69
2023/07/13 04:43:27;;;;;;;5.07;1.00;;;;;;;13.57;54.47;101216.41;4987862;28;20029;-69
2023/07/13 04:45:53;;;;;;;12.10;1.58;;;;;;;13.78;53.98;101217.13;4984058;28;21046;-70
2023/07/13 04:48:19;;;;;;;7.55;1.13;;;;;;;13.42;54.93;101224.97;4988692;28;20072;-73
2023/07/13 04:50:45;;;;;;;6.95;1.20;;;;;;;13.83;53.81;101220.41;4981543;28;20317;-67
2023/07/13 04:53:11;;;;;;;5.00;0.90;;;;;;;13.76;53.67;101223.41;4988060;28;20041;-71
2023/07/13 04:55:37;;;;;;;10.13;2.08;;;;;;;14.01;53.57;101220.44;4985605;28;20668;-71
2023/07/13 04:58:03;;;;;;;5.85;1.17;;;;;;;13.64;54.17;101224.84;4987428;28;20092;-70
2023/07/13 05:00:29;;;;;;;12.05;1.42;;;;;;;13.94;53.38;101220.75;4985270;28;20048;-70
2023/07/13 05:02:57;;;;;;;3.63;1.30;;;;;;;14.21;53.04;101222.06;4990349;28;20026;-76
2023/07/13 05:05:26;;;;;;;4.30;0.80;;;;;;;14.36;52.54;101218.69;4987263;28;20524;-69
2023/07/13 05:07:53;;;;;;;7.82;1.33;;;;;;;14.62;52.55;101220.00;4982308;28;20026;-68
2023/07/13 05:10:19;;;;;;;11.52;1.48;;;;;;;15.43;51.10;101222.75;4987691;28;20132;-77
2023/07/13 05:12:45;;;;;;;6.78;1.80;;;;;;;14.91;51.79;101222.91;4970598;28;20607;-70
2023/07/13 05:15:11;;;;;;;10.35;1.38;;;;;;;15.28;50.44;101234.13;4988299;28;20038;-69
2023/07/13 05:17:38;;;;;;;8.57;1.40;;;;;;;15.47;49.43;101234.81;4983882;28;20026;-68
2023/07/13 05:20:05;;;;;;;12.80;1.65;;;;;;;15.31;50.57;101233.97;4984828;28;20492;-69
2023/07/13 05:22:31;;;;;;;9.85;0.88;;;;;;;15.29;51.50;101233.19;4986806;28;20061;-67
2023/07/13 05:24:56;;;;;;;8.65;2.00;;;;;;;15.43;50.71;101238.56;4984025;28;20479;-73
2023/07/13 05:27:23;;;;;;;7.40;1.40;;;;;;;15.14;51.33;101237.47;4983445;28;20030;-67
2023/07/13 05:29:49;;;;;;;6.82;0.73;;;;;;;15.29;50.86;101230.56;4987225;28;20038;-70
2023/07/13 05:32:18;;;;;;;8.70;1.10;;;;;;;14.43;53.15;101227.97;4988710;28;20038;-72
2023/07/13 05:34:44;;;;;;;8.35;1.85;;;;;;;;;;4984881;28;20071;-71
2023/07/13 05:37:10;;;;;;;10.10;1.50;;;;;;;15.69;50.68;101244.19;4989594;28;20508;-72
2023/07/13 05:39:35;;;;;;;10.10;1.10;;;;;;;18.10;45.21;101241.94;4984040;28;20209;-72
2023/07/13 05:42:05;;;;;;;6.35;1.33;;;;;;;17.14;46.61;101236.59;4988907;28;20127;-68
2023/07/13 05:44:31;;;;;;;11.35;1.40;;;;;;;18.63;43.35;101240.13;4985799;28;20520;-67
2023/07/13 05:46:56;;;;;;;6.22;1.52;;;;;;;17.47;45.96;101241.56;4980827;28;20026;-67
2023/07/13 05:49:23;;;;;;;12.85;1.70;;;;;;;17.64;46.16;101245.78;4967286;28;20123;-68
2023/07/13 05:51:49;;;;;;;9.23;1.05;;;;;;;18.56;43.73;101247.66;4992868;28;20125;-68
2023/07/13 05:54:14;;;;;;;5.00;1.33;;;;;;;18.12;44.14;101247.97;4988033;28;20045;-68
2023/07/13 05:56:40;;;;;;;8.63;2.42;;;;;;;18.36;44.14;101248.16;4985865;28;20037;-69
2023/07/13 05:59:05;;;;;;;4.78;1.23;;;;;;;19.50;41.74;101246.41;4983273;28;20050;-69
2023/07/13 06:01:31;;;;;;;8.68;1.92;;;;;;;18.96;42.57;101252.03;4983803;28;20184;-68
2023/07/13 06:03:57;;;;;;;10.38;1.67;;;;;;;18.56;42.63;101252.94;4976145;28;20200;-69
2023/07/13 06:06:22;;;;;;;10.18;2.13;;;;;;;19.56;40.84;101264.56;4967203;28;20037;-68
2023/07/13 06:08:48;;;;;;;6.30;1.58;;;;;;;18.92;42.30;101255.84;4985363;28;20046;-69
2023/07/13 06:11:21;;;;;;;5.78;1.20;;;;;;;21.13;37.90;101258.97;4982920;28;20048;-69
2023/07/13 06:13:46;;;;;;;11.77;1.40;;;;;;;19.77;40.36;101261.31;4984756;28;20062;-69
2023/07/13 06:16:13;;;;;;;15.38;2.67;;;;;;;18.42;43.70;101261.81;4982257;28;20034;-70
2023/07/13 06:18:40;;;;;;;15.20;1.70;;;;;;;17.90;45.31;101265.25;4979727;28;20049;-70
2023/07/13 06:21:11;;;;;;;12.00;2.00;;;;;;;19.19;42.90;101253.94;4987896;28;20034;-71
2023/07/13 06:23:37;;;;;;;7.97;1.27;;;;;;;18.25;44.67;101256.81;4980917;28;20382;-72
2023/07/13 06:26:04;;;;;;;8.10;1.20;;;;;;;18.71;43.77;101264.28;4983639;28;20037;-72
2023/07/13 06:28:31;;;;;;;13.13;1.60;;;;;;;19.37;42.50;101262.38;4983442;28;20068;-71
2023/07/13 06:30:58;;;;;;;11.90;1.58;;;;;;;19.42;42.70;101259.41;4982330;28;20034;-70
2023/07/13 06:33:24;;;;;;;6.15;1.17;;;;;;;20.87;40.10;101266.31;4983088;28;20125;-71
2023/07/13 06:35:49;;;;;;;8.07;1.63;;;;;;;20.88;39.55;101270.66;4985086;28;20432;-71
2023/07/13 06:38:15;;;;;;;11.52;1.52;;;;;;;21.55;38.59;101276.94;4978088;28;20034;-70
2023/07/13 06:40:41;;;;;;;6.57;1.70;;;;;;;22.49;35.69;101270.06;4985604;28;20611;-71
2023/07/13 06:43:06;;;;;;;6.05;1.38;;;;;;;21.97;36.39;101271.75;4985561;28;20080;-71
2023/07/13 06:45:41;;;;;;;6.90;1.15;;;;;;;21.87;37.74;101274.34;4967565;28;20053;-69
2023/07/13 06:48:07;;;;;;;7.80;1.63;;;;;;;21.01;38.07;101267.91;5000079;28;20058;-68
2023/07/13 06:50:33;;;;;;;7.78;1.55;;;;;;;21.27;37.23;101267.66;4970899;28;20045;-68
2023/07/13 06:52:59;;;;;;;10.63;1.35;;;;;;;23.08;34.87;101262.44;4985105;28;20088;-69
2023/07/13 06:55:26;;;;;;;7.43;1.08;;;;;;;23.89;33.50;101270.41;4983444;28;20073;-69
2023/07/13 06:57:51;;;;;;;7.97;1.27;;;;;;;23.44;33.47;101270.88;4985452;28;20180;-70
2023/07/13 07:00:17;;;;;;;5.10;1.05;;;;;;;22.60;35.57;101274.50;4982288;28;20049;-68
2023/07/13 07:02:42;;;;;;;7.47;1.55;;;;;;;22.28;36.22;101278.06;4985684;28;20080;-68
2023/07/13 07:05:08;;;;;;;4.40;0.77;;;;;;;21.61;39.01;101275.63;4983909;28;20124;-68
2023/07/13 07:07:34;;;;;;;4.15;1.00;;;;;;;21.35;37.38;101276.72;4979219;28;20384;-67
2023/07/13 07:09:59;;;;;;;4.00;1.13;;;;;;;22.06;36.80;101275.47;4983297;28;20153;-67
2023/07/13 07:12:25;;;;;;;5.28;0.98;;;;;;;23.16;34.09;101279.47;4981739;28;20235;-68
2023/07/13 07:14:51;;;;;;;5.82;1.00;;;;;;;23.95;33.17;101283.22;4978355;28;20053;-68
2023/07/13 07:17:17;;;;;;;8.45;0.60;;;;;;;21.88;34.39;101276.03;4967685;28;20702;-68
2023/07/13 07:19:42;;;;;;;5.30;1.25;;;;;;;22.28;35.17;101279.91;4984119;28;20675;-68
2023/07/13 07:22:08;;;;;;;5.72;1.23;;;;;;;20.68;37.75;101288.09;4986362;28;20450;-69
2023/07/13 07:24:34;;;;;;;9.10;1.33;;;;;;;18.57;42.00;101294.38;4984885;28;20046;-67
2023/07/13 07:26:59;;;;;;;3.17;0.90;;;;;;;21.89;35.24;101292.81;4986710;28;20103;-67
2023/07/13 07:29:26;;;;;;;6.72;0.70;;;;;;;23.59;33.79;101289.03;4997851;28;20030;-68
2023/07/13 07:31:52;;;;;;;5.22;0.85;;;;;;;21.89;35.06;101290.16;5002730;28;20049;-68
2023/07/13 07:34:17;;;;;;;2.58;0.50;;;;;;;22.91;32.77;101283.41;4982405;28;20443;-69
2023/07/13 07:36:43;;;;;;;8.52;1.40;;;;;;;20.50;35.78;101290.34;4988765;28;20053;-67
2023/07/13 07:39:08;;;;;;;9.77;0.80;;;;;;;21.30;35.60;101291.34;4987173;28;20042;-67
2023/07/13 07:41:34;;;;;;;4.28;0.40;;;;;;;22.36;32.82;101296.91;4986692;28;21397;-66
2023/07/13 07:44:00;;;;;;;6.70;1.13;;;;;;;22.65;32.04;101292.75;4994739;28;20038;-69
2023/07/13 07:46:25;;;;;;;4.00;0.50;;;;;;;22.10;33.32;101293.75;4983687;28;20222;-67
2023/07/13 07:48:51;;;;;;;5.97;0.70;;;;;;;24.13;31.30;101291.38;4986155;28;20050;-70
2023/07/13 07:51:16;;;;;;;2.08;0.55;;;;;;;23.44;31.92;101287.72;4972970;28;20546;-67
2023/07/13 07:53:42;;;;;;;6.20;0.73;;;;;;;24.61;30.83;101290.47;4985569;28;20089;-68
2023/07/13 07:56:09;;;;;;;3.78;0.52;;;;;;;24.36;29.82;101281.22;4990645;28;20030;-67
2023/07/13 07:58:35;;;;;;;2.63;0.50;;;;;;;24.88;29.25;101278.16;4986904;28;20042;-67
2023/07/13 08:01:07;;;;;;;4.25;0.30;;;;;;;24.42;29.88;101291.38;4989747;28;20072;-68
2023/07/13 08:03:33;;;;;;;3.13;0.90;;;;;;;24.00;29.50;101294.31;4984257;28;20064;-68
2023/07/13 08:05:59;;;;;;;6.20;0.80;;;;;;;23.71;30.81;101292.41;4989860;28;20036;-68
2023/07/13 08:08:25;;;;;;;2.88;0.95;;;;;;;22.97;31.11;101290.03;4968563;28;20026;-70
2023/07/13 08:10:52;;;;;;;3.85;0.45;;;;;;;22.99;30.93;101288.09;5002606;28;20303;-68
2023/07/13 08:13:17;;;;;;;3.58;0.22;;;;;;;23.07;30.20;101292.72;4987578;28;20491;-70
2023/07/13 08:15:43;;;;;;;3.53;0.70;;;;;;;25.39;27.78;101285.69;4985709;28;20048;-69
2023/07/13 08:18:09;;;;;;;1.33;0.35;;;;;;;26.16;25.67;101282.72;4987151;28;20260;-67
2023/07/13 08:20:40;;;;;;;3.88;0.30;;;;;;;25.19;26.86;101289.47;4983754;28;21068;-66
2023/07/13 08:23:08;;;;;;;3.75;0.45;;;;;;;25.04;27.68;101292.66;4986680;28;20034;-68
2023/07/13 08:25:34;;;;;;;2.58;0.20;;;;;;;25.08;26.52;101297.69;4983302;28;20404;-69
2023/07/13 08:28:00;;;;;;;2.83;0.25;;;;;;;24.72;27.05;101292.16;4988698;28;20034;-68
2023/07/13 08:30:26;;;;;;;2.83;0.20;;;;;;;24.54;27.02;101295.56;4982066;28;20049;-68
2023/07/13 08:32:53;;;;;;;4.63;0.30;;;;;;;26.52;24.86;101299.56;4988110;28;20036;-68
2023/07/13 08:35:19;;;;;;;2.75;0.20;;;;;;;26.05;25.06;101302.50;4985143;28;20080;-69
2023/07/13 08:37:44;;;;;;;3.83;0.28;;;;;;;25.09;26.21;101310.09;4985035;28;20530;-67
2023/07/13 08:40:11;;;;;;;1.55;0.20;;;;;;;26.13;25.38;101307.09;4986374;28;20052;-67
2023/07/13 08:42:41;;;;;;;3.92;0.40;;;;;;;26.90;23.45;101305.53;4984142;28;20040;-68
2023/07/13 08:45:54;;;;;;;1.70;0.20;;;;;;;26.80;24.79;101310.16;4986483;28;20053;-68
2023/07/13 08:48:32;;;;;;;1.83;0.20;;;;;;;24.95;27.07;101304.19;4938141;28;20072;-68
2023/07/13 08:51:13;;;;;;;2.40;0.43;;;;;;;24.02;27.59;101305.69;4954929;28;20515;-67
2023/07/13 08:53:47;;;;;;;5.93;0.45;;;;;;;25.22;26.54;101305.25;4984302;28;20355;-69
2023/07/13 08:56:22;;;;;;;3.30;0.30;;;;;;;25.73;25.27;101293.13;4984995;28;20489;-69
2023/07/13 08:58:54;;;;;;;6.95;1.42;;;;;;;24.47;26.55;101307.81;4985482;28;20133;-69
2023/07/13 09:01:54;;;;;;;5.35;0.30;;;;;;;22.91;28.57;101307.38;4983644;28;20034;-68
2023/07/13 09:04:49;;;;;;;2.33;0.40;;;;;;;21.35;31.63;101319.25;4980181;28;20100;-69
2023/07/13 09:07:18;;;;;;;3.10;0.40;;;;;;;19.90;34.29;101323.13;4978082;28;20053;-67
2023/07/13 09:10:13;;;;;;;3.72;0.30;;;;;;;19.80;34.38;101322.09;4983409;28;20404;-68
2023/07/13 09:12:41;;;;;;;2.10;0.30;;;;;;;19.74;35.05;101322.53;4984828;28;20156;-68
2023/07/13 09:15:22;;;;;;;3.92;1.20;;;;;;;19.74;35.21;101314.59;4989964;28;20042;-68
2023/07/13 09:17:50;;;;;;;5.68;0.43;;;;;;;20.27;34.62;101315.16;4986585;28;20053;-68
2023/07/13 09:20:35;;;;;;;4.50;0.40;;;;;;;20.10;34.76;101326.97;4984941;28;20038;-68
2023/07/13 09:23:05;;;;;;;2.67;0.60;;;;;;;20.38;34.22;101331.13;4986788;28;20488;-68
2023/07/13 09:25:31;;;;;;;2.88;0.40;;;;;;;21.05;33.61;101324.31;4983191;28;20065;-67
2023/07/13 09:28:17;;;;;;;1.85;0.55;;;;;;;21.21;33.47;101338.09;4999204;28;20443;-68
2023/07/13 09:31:03;;;;;;;6.13;0.80;;;;;;;20.62;34.21;101325.78;4984552;28;20416;-66
2023/07/13 09:33:30;;;;;;;2.92;0.60;;;;;;;20.61;34.14;101324.06;4978067;28;20070;-69
2023/07/13 09:35:59;;;;;;;2.60;0.30;;;;;;;21.30;31.98;101320.59;4999363;28;20061;-68
2023/07/13 09:38:28;;;;;;;3.55;0.63;;;;;;;22.28;31.33;101323.34;4981070;28;20033;-68
2023/07/13 09:41:24;;;;;;;6.57;0.40;;;;;;;23.51;28.98;101312.03;4998086;28;20673;-69
2023/07/13 09:44:13;;;;;;;5.05;0.70;;;;;;;21.13;32.58;101317.44;4994197;28;20633;-67
2023/07/13 09:46:53;;;;;;;1.27;0.22;;;;;;;19.71;34.79;101319.16;4980495;28;20324;-68
2023/07/13 09:49:23;;;;;;;1.95;0.63;;;;;;;18.57;37.76;101333.22;4982414;28;20049;-68
2023/07/13 09:51:58;;;;;;;4.18;0.40;;;;;;;17.76;40.61;101356.03;4984878;28;20037;-68
2023/07/13 09:54:25;;;;;;;3.28;0.47;;;;;;;17.89;43.23;101366.66;4983784;28;20076;-68
2023/07/13 09:57:13;;;;;;;9.50;1.45;;;;;;;16.58;46.90;101371.03;4999249;28;20029;-68
2023/07/13 09:59:48;;;;;;;1.52;0.50;;;;;;;16.15;49.34;101391.88;4995159;28;20168;-69
2023/07/13 10:02:34;;;;;;;2.15;1.25;;;;;;;15.90;50.79;101385.28;4984268;28;20033;-69
2023/07/13 10:05:04;;;;;;;3.70;0.70;;;;;;;15.72;50.80;101389.78;4986810;28;20053;-69
2023/07/13 10:07:31;;;;;;;3.60;0.88;;;;;;;15.39;52.79;101389.78;4980620;28;20563;-69
2023/07/13 10:10:01;;;;;;;4.00;0.95;;;;;;;16.04;51.85;101383.72;4984309;28;20065;-70
2023/07/13 10:12:28;;;;;;;2.58;0.60;;;;;;;16.26;51.58;101380.75;4984157;28;20046;-69
2023/07/13 10:14:56;;;;;;;6.15;0.60;;;;;;;16.25;50.88;101374.63;4992132;28;20034;-69
2023/07/13 10:17:30;;;;;;;4.95;0.80;;;;;;;16.36;50.22;101371.38;4978304;28;20045;-69
2023/07/13 10:20:04;;;;;;;1.58;0.50;;;;;;;16.93;50.56;101376.03;4979087;28;20063;-69
2023/07/13 10:22:39;;;;;;;3.72;0.75;;;;;;;16.82;50.04;101377.53;4980511;28;20219;-69
2023/07/13 10:25:19;;;;;;;5.03;0.85;;;;;;;17.16;48.51;101382.63;4980554;28;20068;-68
2023/07/13 10:27:47;;;;;;;2.70;0.60;;;;;;;17.80;45.87;101373.38;4981792;28;20034;-69
2023/07/13 10:30:31;;;;;;;6.95;0.80;;;;;;;19.04;45.87;101388.31;4976814;28;20171;-69
2023/07/13 10:33:03;;;;;;;2.88;0.65;;;;;;;20.41;44.49;101385.78;4982215;28;20033;-68
2023/07/13 10:35:31;;;;;;;5.15;0.70;;;;;;;21.03;42.97;101392.69;4967585;28;20077;-68
2023/07/13 10:38:13;;;;;;;1.70;0.60;;;;;;;21.27;39.88;101381.97;4980560;28;20155;-68
2023/07/13 10:40:42;;;;;;;2.80;0.35;;;;;;;20.48;41.28;101379.91;4940046;28;20038;-67
2023/07/13 10:43:19;;;;;;;4.95;0.73;;;;;;;19.55;39.06;101374.25;4973118;28;20054;-68
2023/07/13 10:45:49;;;;;;;3.83;0.32;;;;;;;18.68;40.61;101370.41;4960160;28;20790;-68
2023/07/13 10:48:16;;;;;;;2.55;0.73;;;;;;;18.70;40.33;101384.41;4976356;28;20061;-68
2023/07/13 10:50:45;;;;;;;2.75;0.82;;;;;;;18.85;41.75;101403.69;4977242;28;20869;-68
2023/07/13 10:53:27;;;;;;;2.70;0.60;;;;;;;18.49;41.38;101407.84;4985544;28;20040;-66
2023/07/13 10:55:56;;;;;;;2.28;0.40;;;;;;;18.26;42.25;101422.56;4984478;28;20374;-67
2023/07/13 10:58:27;;;;;;;1.27;0.45;;;;;;;16.52;46.19;101432.91;4986476;28;20034;-69
2023/07/13 11:01:11;;;;;;;4.65;0.40;;;;;;;15.71;47.72;101430.25;4999830;28;20670;-69
2023/07/13 11:03:43;;;;;;;2.15;0.63;;;;;;;15.58;48.74;101443.22;4982769;28;20041;-72
2023/07/13 11:06:36;;;;;;;3.53;0.45;;;;;;;15.69;48.29;101452.34;4985988;28;20145;-71
2023/07/13 11:09:34;;;;;;;4.95;0.70;;;;;;;16.14;48.60;101461.41;4981481;28;20115;-67
2023/07/13 11:12:02;;;;;;;2.10;0.80;;;;;;;15.68;49.56;101455.91;4997729;28;20054;-69
2023/07/13 11:14:41;;;;;;;5.80;1.38;;;;;;;14.90;49.67;101460.69;4978409;28;20992;-71
2023/07/13 11:17:32;;;;;;;1.95;0.65;;;;;;;15.45;49.20;101457.94;4984302;28;20194;-70
2023/07/13 11:20:12;;;;;;;2.55;0.60;;;;;;;14.70;51.24;101453.75;4974326;28;20292;-72
2023/07/13 11:22:50;;;;;;;6.22;0.68;;;;;;;14.23;51.96;101454.19;4981494;28;20037;-70
2023/07/13 11:25:34;;;;;;;3.25;1.00;;;;;;;14.93;51.76;101447.41;4982887;28;20645;-70
2023/07/13 11:28:07;;;;;;;3.38;0.85;;;;;;;15.28;51.15;101455.31;4986117;28;20192;-71
2023/07/13 11:30:39;;;;;;;3.75;1.00;;;;;;;15.22;50.76;101461.78;4963180;28;20049;-70
2023/07/13 11:33:17;;;;;;;4.43;1.63;;;;;;;15.48;50.80;101468.34;4985032;28;20045;-70